createdAt,value
2022-09-11T00:01:33.397Z,83.91
2022-09-11T00:04:00.517Z,83.82
2022-09-11T00:06:30.141Z,83.58
2022-09-11T00:09:01.396Z,83.61
2022-09-11T00:11:40.695Z,83.53
2022-09-11T00:14:10.393Z,83.50
2022-09-11T00:16:41.451Z,83.57
2022-09-11T00:19:13.991Z,83.63
2022-09-11T00:21:40.692Z,83.85
2022-09-11T00:24:10.731Z,83.98
2022-09-11T00:26:38.944Z,83.90
2022-09-11T00:29:05.682Z,83.97
2022-09-11T00:31:32.795Z,84.17
2022-09-11T00:34:00.130Z,84.21
2022-09-11T00:36:36.363Z,84.06
2022-09-11T00:39:03.689Z,84.16
2022-09-11T00:41:36.599Z,84.37
2022-09-11T00:44:08.997Z,84.46
2022-09-11T00:46:48.889Z,84.46
2022-09-11T00:49:21.178Z,84.55
2022-09-11T00:51:53.575Z,84.71
2022-09-11T00:54:29.045Z,84.82
2022-09-11T00:56:59.030Z,84.88
2022-09-11T00:59:28.079Z,84.59
2022-09-11T01:01:55.316Z,85.05
2022-09-11T01:04:23.448Z,85.29
2022-09-11T01:06:55.229Z,84.86
2022-09-11T01:09:22.604Z,84.76
2022-09-11T01:11:55.802Z,84.96
2022-09-11T01:14:45.802Z,84.61
2022-09-11T01:17:26.705Z,84.83
2022-09-11T01:20:27.349Z,85.04
2022-09-11T01:23:02.966Z,84.86
2022-09-11T01:26:23.554Z,84.86
2022-09-11T01:29:20.826Z,85.39
2022-09-11T01:32:16.677Z,85.56
2022-09-11T01:34:57.364Z,85.46
2022-09-11T01:37:50.264Z,85.35
2022-09-11T01:40:24.689Z,85.12
2022-09-11T01:42:59.674Z,84.93
2022-09-11T01:45:27.538Z,84.76
2022-09-11T01:47:55.861Z,84.72
2022-09-11T01:50:25.145Z,84.96
2022-09-11T01:52:58.333Z,84.90
2022-09-11T01:55:39.677Z,84.91
2022-09-11T01:58:09.670Z,84.75
2022-09-11T02:00:40.401Z,84.53
2022-09-11T02:03:31.484Z,84.60
2022-09-11T02:06:03.889Z,84.78
2022-09-11T02:08:36.329Z,84.58
2022-09-11T02:11:10.492Z,84.48
2022-09-11T02:13:46.031Z,84.49
2022-09-11T02:16:25.915Z,84.58
2022-09-11T02:19:05.109Z,85.08
2022-09-11T02:21:33.697Z,85.13
2022-09-11T02:24:01.897Z,85.08
2022-09-11T02:26:32.125Z,85.01
2022-09-11T02:28:59.390Z,84.77
2022-09-11T02:31:26.436Z,84.75
2022-09-11T02:33:53.200Z,85.25
2022-09-11T02:36:31.968Z,85.39
2022-09-11T02:39:13.488Z,85.28
2022-09-11T02:42:07.333Z,85.11
2022-09-11T02:44:38.936Z,85.48
2022-09-11T02:47:11.241Z,85.58
2022-09-11T02:49:59.630Z,85.90
2022-09-11T02:52:43.063Z,85.81
2022-09-11T02:55:41.815Z,85.55
2022-09-11T02:58:33.334Z,85.43
2022-09-11T03:01:04.516Z,85.67
2022-09-11T03:03:44.568Z,85.24
2022-09-11T03:06:17.183Z,85.40
2022-09-11T03:08:44.672Z,85.60
2022-09-11T03:11:11.473Z,85.39
2022-09-11T03:13:38.312Z,85.32
2022-09-11T03:16:05.734Z,85.40
2022-09-11T03:18:33.260Z,85.13
2022-09-11T03:21:01.239Z,85.32
2022-09-11T03:23:28.303Z,85.35
2022-09-11T03:25:55.711Z,85.57
2022-09-11T03:28:22.968Z,85.46
2022-09-11T03:30:50.595Z,85.50
2022-09-11T03:33:17.377Z,85.74
2022-09-11T03:35:44.863Z,85.34
2022-09-11T03:38:12.662Z,85.58
2022-09-11T03:40:41.931Z,85.47
2022-09-11T03:43:09.553Z,85.57
2022-09-11T03:45:36.400Z,85.36
2022-09-11T03:48:03.277Z,85.66
2022-09-11T03:50:30.156Z,85.70
2022-09-11T03:52:58.193Z,85.75
2022-09-11T03:55:24.934Z,85.39
2022-09-11T03:57:51.664Z,85.50
2022-09-11T04:00:18.495Z,85.32
2022-09-11T04:02:45.285Z,85.10
2022-09-11T04:05:12.010Z,85.30
2022-09-11T04:07:38.852Z,85.21
2022-09-11T04:10:06.925Z,85.56
2022-09-11T04:12:33.924Z,85.41
2022-09-11T04:15:02.351Z,85.48
2022-09-11T04:17:31.966Z,85.43
2022-09-11T04:19:58.660Z,85.50
2022-09-11T04:22:26.347Z,85.40
2022-09-11T04:24:53.156Z,85.72
2022-09-11T04:27:23.578Z,85.70
2022-09-11T04:29:50.579Z,85.96
2022-09-11T04:32:17.268Z,86.06
2022-09-11T04:34:44.017Z,85.87
2022-09-11T04:37:11.783Z,85.74
2022-09-11T04:39:38.568Z,85.68
2022-09-11T04:42:05.511Z,85.52
2022-09-11T04:44:32.787Z,85.44
2022-09-11T04:46:59.807Z,85.57
2022-09-11T04:49:26.755Z,85.70
2022-09-11T04:51:55.068Z,85.68
2022-09-11T04:54:21.870Z,85.64
2022-09-11T04:56:49.135Z,85.51
2022-09-11T04:59:22.581Z,85.66
2022-09-11T05:01:49.587Z,85.83
2022-09-11T05:04:22.915Z,85.89
2022-09-11T05:06:52.350Z,86.11
2022-09-11T05:09:19.551Z,86.30
2022-09-11T05:11:46.771Z,86.47
2022-09-11T05:14:13.524Z,86.37
2022-09-11T05:16:40.578Z,86.45
2022-09-11T05:19:07.413Z,86.40
2022-09-11T05:21:34.736Z,86.50
2022-09-11T05:24:02.538Z,86.44
2022-09-11T05:26:32.145Z,86.42
2022-09-11T05:29:15.941Z,86.41
2022-09-11T05:31:43.211Z,86.74
2022-09-11T05:34:09.990Z,86.70
2022-09-11T05:36:37.180Z,86.79
2022-09-11T05:39:05.483Z,86.85
2022-09-11T05:41:32.318Z,87.33
2022-09-11T05:43:59.407Z,87.75
2022-09-11T05:46:26.166Z,88.32
2022-09-11T05:48:53.716Z,88.38
2022-09-11T05:51:21.835Z,88.69
2022-09-11T05:53:53.121Z,88.84
2022-09-11T05:56:22.750Z,88.43
2022-09-11T05:58:51.948Z,88.17
2022-09-11T06:01:21.461Z,88.27
2022-09-11T06:03:49.683Z,88.13
2022-09-11T06:06:18.755Z,88.30
2022-09-11T06:08:47.565Z,88.41
2022-09-11T06:11:16.955Z,88.55
2022-09-11T06:13:46.587Z,88.95
2022-09-11T06:16:19.056Z,89.28
2022-09-11T06:18:50.347Z,89.19
2022-09-11T06:21:23.348Z,89.47
2022-09-11T06:23:52.128Z,89.55
2022-09-11T06:26:21.938Z,89.46
2022-09-11T06:28:48.919Z,89.09
2022-09-11T06:31:18.679Z,89.41
2022-09-11T06:33:46.975Z,89.59
2022-09-11T06:36:17.503Z,89.68
2022-09-11T06:38:44.667Z,90.04
2022-09-11T06:41:14.383Z,90.22
2022-09-11T06:43:42.554Z,90.26
2022-09-11T06:46:15.062Z,90.19
2022-09-11T06:48:44.248Z,89.88
2022-09-11T06:51:13.108Z,90.20
2022-09-11T06:53:41.418Z,90.04
2022-09-11T06:56:12.955Z,89.99
2022-09-11T06:58:41.317Z,90.03
2022-09-11T07:01:11.817Z,90.17
2022-09-11T07:03:42.049Z,90.31
2022-09-11T07:06:08.867Z,89.87
2022-09-11T07:08:35.706Z,89.73
2022-09-11T07:11:04.916Z,89.78
2022-09-11T07:13:37.151Z,90.00
2022-09-11T07:16:09.872Z,90.00
2022-09-11T07:18:45.609Z,90.42
2022-09-11T07:21:14.001Z,90.31
2022-09-11T07:23:42.383Z,90.10
2022-09-11T07:26:13.041Z,90.10
2022-09-11T07:28:40.469Z,90.07
2022-09-11T07:31:16.281Z,89.93
2022-09-11T07:33:48.236Z,89.87
2022-09-11T07:36:17.725Z,89.77
2022-09-11T07:38:47.144Z,89.59
2022-09-11T07:41:15.689Z,89.20
2022-09-11T07:43:45.617Z,89.16
2022-09-11T07:46:13.663Z,89.32
2022-09-11T07:48:42.957Z,89.25
2022-09-11T07:51:13.046Z,89.33
2022-09-11T07:53:46.264Z,88.88
2022-09-11T07:56:19.007Z,88.82
2022-09-11T07:58:46.272Z,88.91
2022-09-11T08:01:16.275Z,88.71
2022-09-11T08:03:44.174Z,88.97
2022-09-11T08:06:16.837Z,88.61
2022-09-11T08:08:46.212Z,88.38
2022-09-11T08:11:18.237Z,87.98
2022-09-11T08:13:50.966Z,87.63
2022-09-11T08:16:19.593Z,87.91
2022-09-11T08:18:46.807Z,88.15
2022-09-11T08:21:14.231Z,87.55
2022-09-11T08:23:42.851Z,87.47
2022-09-11T08:26:12.045Z,86.81
2022-09-11T08:28:41.368Z,86.74
2022-09-11T08:31:08.261Z,85.25
2022-09-11T08:33:35.404Z,84.90
2022-09-11T08:36:05.231Z,84.87
2022-09-11T08:38:33.608Z,84.73
2022-09-11T08:41:13.014Z,84.49
2022-09-11T08:43:50.976Z,83.56
2022-09-11T08:46:21.478Z,83.22
2022-09-11T08:49:00.707Z,83.04
2022-09-11T08:51:27.794Z,82.87
2022-09-11T08:53:57.151Z,83.20
2022-09-11T08:56:29.389Z,81.94
2022-09-11T08:59:18.895Z,80.87
2022-09-11T09:02:07.050Z,80.28
2022-09-11T09:04:59.465Z,78.70
2022-09-11T09:07:26.174Z,76.78
2022-09-11T09:10:14.035Z,74.05
2022-09-11T09:12:47.257Z,72.90
2022-09-11T09:15:29.318Z,74.30
2022-09-11T09:18:05.447Z,74.08
2022-09-11T09:20:43.670Z,72.49
2022-09-11T09:23:19.948Z,74.80
2022-09-11T09:25:48.309Z,73.49
2022-09-11T09:28:25.529Z,72.13
2022-09-11T09:31:02.939Z,69.79
2022-09-11T09:33:35.454Z,71.57
2022-09-11T09:36:11.312Z,70.54
2022-09-11T09:38:38.185Z,70.79
2022-09-11T09:41:33.280Z,69.94
2022-09-11T09:44:28.047Z,69.84
2022-09-11T09:46:56.176Z,70.51
2022-09-11T09:49:29.837Z,68.24
2022-09-11T09:52:03.587Z,68.53
2022-09-11T09:54:36.652Z,68.37
2022-09-11T09:57:10.633Z,66.18
2022-09-11T09:59:45.864Z,68.00
2022-09-11T10:02:12.734Z,67.53
2022-09-11T10:04:39.483Z,66.77
2022-09-11T10:07:11.477Z,69.23
2022-09-11T10:09:47.091Z,67.75
2022-09-11T10:12:26.690Z,70.45
2022-09-11T10:14:55.999Z,66.46
2022-09-11T10:17:31.395Z,68.63
2022-09-11T10:20:19.378Z,65.49
2022-09-11T10:22:46.787Z,66.19
2022-09-11T10:25:18.562Z,67.68
2022-09-11T10:28:11.528Z,66.62
2022-09-11T10:30:41.694Z,66.01
2022-09-11T10:33:49.515Z,65.17
2022-09-11T10:36:23.371Z,63.97
2022-09-11T10:38:50.542Z,64.05
2022-09-11T10:41:23.506Z,64.01
2022-09-11T10:44:00.639Z,65.16
2022-09-11T10:46:29.078Z,60.56
2022-09-11T10:48:55.780Z,62.77
2022-09-11T10:51:25.237Z,63.47
2022-09-11T10:54:19.675Z,63.65
2022-09-11T10:57:07.943Z,64.46
2022-09-11T10:59:41.012Z,62.28
2022-09-11T11:02:19.519Z,63.25
2022-09-11T11:04:47.583Z,61.71
2022-09-11T11:07:28.921Z,63.09
2022-09-11T11:10:59.258Z,62.07
2022-09-11T11:13:39.550Z,62.63
2022-09-11T11:16:40.185Z,62.11
2022-09-11T11:19:09.710Z,61.13
2022-09-11T11:21:45.584Z,59.48
2022-09-11T11:24:32.419Z,59.80
2022-09-11T11:27:17.726Z,58.75
2022-09-11T11:30:21.495Z,63.27
2022-09-11T11:33:00.007Z,61.99
2022-09-11T11:36:00.749Z,63.87
2022-09-11T11:38:36.700Z,64.92
2022-09-11T11:41:19.665Z,65.97
2022-09-11T11:43:50.022Z,64.84
2022-09-11T11:46:39.053Z,64.34
2022-09-11T11:49:13.588Z,66.23
2022-09-11T11:52:05.199Z,66.69
2022-09-11T11:54:46.735Z,67.32
2022-09-11T11:57:21.011Z,64.95
2022-09-11T11:59:59.550Z,66.58
2022-09-11T12:02:43.373Z,66.42
2022-09-11T12:05:24.258Z,67.36
2022-09-11T12:07:51.861Z,67.65
2022-09-11T12:10:22.951Z,67.70
2022-09-11T12:13:15.526Z,66.33
2022-09-11T12:16:13.333Z,66.71
2022-09-11T12:18:42.536Z,63.59
2022-09-11T12:21:42.838Z,65.93
2022-09-11T12:24:13.232Z,63.87
2022-09-11T12:26:40.071Z,64.33
2022-09-11T12:29:16.063Z,65.51
2022-09-11T12:31:52.145Z,64.43
2022-09-11T12:34:24.410Z,63.83
2022-09-11T12:37:02.453Z,65.11
2022-09-11T12:39:45.937Z,64.93
2022-09-11T12:42:23.202Z,66.08
2022-09-11T12:44:49.891Z,63.09
2022-09-11T12:47:43.207Z,66.31
2022-09-11T12:50:12.877Z,65.58
2022-09-11T12:52:45.599Z,62.48
2022-09-11T12:55:33.733Z,62.21
2022-09-11T12:58:04.319Z,62.23
2022-09-11T13:00:40.883Z,61.26
2022-09-11T13:03:17.953Z,58.91
2022-09-11T13:06:03.351Z,60.61
2022-09-11T13:08:34.789Z,61.69
2022-09-11T13:11:43.047Z,60.40
2022-09-11T13:14:28.275Z,60.60
2022-09-11T13:16:56.405Z,61.46
2022-09-11T13:19:23.779Z,60.71
2022-09-11T13:21:52.414Z,62.64
2022-09-11T13:24:35.937Z,61.12
2022-09-11T13:27:08.785Z,61.46
2022-09-11T13:29:38.700Z,62.62
2022-09-11T13:32:13.824Z,61.44
2022-09-11T13:34:46.387Z,62.67
2022-09-11T13:37:23.795Z,62.73
2022-09-11T13:39:50.629Z,62.21
2022-09-11T13:42:23.381Z,61.28
2022-09-11T13:44:55.993Z,62.43
2022-09-11T13:47:28.478Z,60.36
2022-09-11T13:50:02.155Z,59.96
2022-09-11T13:52:32.460Z,57.71
2022-09-11T13:55:04.627Z,58.53
2022-09-11T13:57:32.245Z,57.10
2022-09-11T14:00:00.557Z,57.86
2022-09-11T14:02:44.619Z,56.58
2022-09-11T14:05:16.170Z,55.91
2022-09-11T14:07:52.040Z,58.92
2022-09-11T14:10:26.904Z,54.52
2022-09-11T14:12:59.003Z,56.74
2022-09-11T14:15:35.490Z,58.40
2022-09-11T14:18:05.178Z,58.04
2022-09-11T14:20:33.132Z,60.56
2022-09-11T14:23:05.841Z,60.79
2022-09-11T14:25:34.213Z,61.11
2022-09-11T14:28:02.412Z,60.71
2022-09-11T14:30:37.669Z,61.30
2022-09-11T14:33:16.705Z,60.13
2022-09-11T14:35:46.945Z,60.76
2022-09-11T14:38:16.244Z,60.25
2022-09-11T14:40:56.699Z,61.41
2022-09-11T14:43:31.378Z,55.41
2022-09-11T14:46:00.163Z,58.19
2022-09-11T14:48:29.012Z,60.62
2022-09-11T14:50:56.130Z,59.67
2022-09-11T14:53:34.565Z,58.30
2022-09-11T14:56:02.857Z,58.91
2022-09-11T14:58:30.779Z,59.49
2022-09-11T15:00:57.816Z,59.13
2022-09-11T15:03:25.759Z,59.01
2022-09-11T15:05:58.728Z,59.63
2022-09-11T15:08:25.853Z,57.76
2022-09-11T15:10:53.825Z,59.33
2022-09-11T15:13:21.829Z,59.65
2022-09-11T15:15:48.753Z,56.07
2022-09-11T15:18:15.618Z,58.81
2022-09-11T15:20:42.400Z,62.24
2022-09-11T15:23:09.306Z,59.87
2022-09-11T15:25:36.142Z,56.24
2022-09-11T15:28:03.185Z,63.15
2022-09-11T15:30:30.127Z,62.85
2022-09-11T15:32:56.978Z,62.12
2022-09-11T15:35:23.872Z,63.21
2022-09-11T15:37:51.058Z,64.24
2022-09-11T15:40:19.000Z,64.52
2022-09-11T15:42:48.962Z,65.55
2022-09-11T15:45:17.122Z,64.27
2022-09-11T15:47:44.708Z,64.32
2022-09-11T15:50:11.964Z,64.31
2022-09-11T15:52:40.993Z,66.19
2022-09-11T15:55:10.085Z,65.79
2022-09-11T15:57:37.020Z,65.98
2022-09-11T16:00:04.910Z,63.09
2022-09-11T16:02:31.697Z,64.12
2022-09-11T16:05:00.144Z,65.05
2022-09-11T16:07:26.856Z,65.51
2022-09-11T16:09:54.532Z,65.64
2022-09-11T16:12:21.377Z,64.11
2022-09-11T16:14:48.407Z,66.00
2022-09-11T16:17:19.510Z,66.00
2022-09-11T16:19:46.776Z,66.93
2022-09-11T16:22:13.621Z,66.38
2022-09-11T16:24:40.458Z,67.62
2022-09-11T16:27:10.044Z,68.71
2022-09-11T16:30:09.418Z,68.65
2022-09-11T16:32:37.615Z,69.72
2022-09-11T16:35:05.040Z,68.40
2022-09-11T16:37:34.049Z,70.07
2022-09-11T16:40:02.545Z,69.33
2022-09-11T16:42:29.806Z,68.29
2022-09-11T16:44:56.607Z,69.31
2022-09-11T16:47:23.781Z,68.96
2022-09-11T16:50:06.310Z,69.76
2022-09-11T16:52:34.937Z,69.73
2022-09-11T16:55:02.081Z,70.82
2022-09-11T16:57:29.238Z,71.53
2022-09-11T16:59:56.104Z,71.29
2022-09-11T17:02:22.828Z,70.90
2022-09-11T17:04:49.767Z,71.14
2022-09-11T17:07:16.560Z,71.46
2022-09-11T17:09:44.006Z,72.20
2022-09-11T17:12:11.726Z,72.48
2022-09-11T17:14:38.968Z,72.26
2022-09-11T17:17:05.981Z,72.61
2022-09-11T17:19:32.826Z,72.48
2022-09-11T17:22:00.227Z,72.47
2022-09-11T17:24:27.419Z,73.36
2022-09-11T17:26:56.058Z,73.07
2022-09-11T17:29:23.003Z,73.50
2022-09-11T17:32:01.067Z,73.13
2022-09-11T17:34:37.399Z,73.96
2022-09-11T17:37:04.277Z,73.65
2022-09-11T17:39:31.155Z,73.64
2022-09-11T17:41:58.034Z,73.79
2022-09-11T17:44:25.005Z,74.08
2022-09-11T17:46:52.321Z,74.06
2022-09-11T17:49:19.332Z,74.19
2022-09-11T17:51:46.208Z,73.99
2022-09-11T17:54:13.083Z,74.39
2022-09-11T17:56:40.091Z,74.36
2022-09-11T17:59:06.957Z,74.70
2022-09-11T18:01:33.791Z,74.74
2022-09-11T18:04:00.734Z,74.95
2022-09-11T18:06:30.284Z,74.98
2022-09-11T18:09:04.674Z,74.44
2022-09-11T18:11:32.327Z,74.95
2022-09-11T18:14:00.457Z,75.08
2022-09-11T18:16:27.673Z,75.41
2022-09-11T18:18:55.781Z,75.23
2022-09-11T18:21:23.175Z,75.43
2022-09-11T18:23:49.987Z,75.13
2022-09-11T18:26:29.787Z,75.03
2022-09-11T18:29:02.351Z,75.35
2022-09-11T18:31:31.446Z,75.52
2022-09-11T18:34:00.752Z,75.83
2022-09-11T18:36:29.696Z,75.58
2022-09-11T18:39:00.143Z,75.59
2022-09-11T18:41:28.440Z,75.72
2022-09-11T18:43:56.991Z,75.65
2022-09-11T18:46:25.517Z,76.01
2022-09-11T18:48:52.869Z,75.80
2022-09-11T18:51:20.314Z,76.29
2022-09-11T18:53:48.910Z,76.53
2022-09-11T18:56:15.786Z,76.43
2022-09-11T18:58:42.650Z,76.32
2022-09-11T19:01:11.794Z,76.54
2022-09-11T19:03:42.371Z,76.74
2022-09-11T19:06:11.916Z,76.73
2022-09-11T19:08:40.569Z,76.69
2022-09-11T19:11:09.300Z,76.80
2022-09-11T19:13:37.241Z,76.92
2022-09-11T19:16:05.339Z,77.17
2022-09-11T19:18:33.672Z,77.19
2022-09-11T19:21:04.108Z,77.14
2022-09-11T19:23:37.548Z,77.45
2022-09-11T19:26:06.350Z,77.43
2022-09-11T19:28:37.924Z,77.43
2022-09-11T19:31:06.410Z,77.42
2022-09-11T19:33:35.324Z,77.48
2022-09-11T19:36:04.887Z,77.34
2022-09-11T19:38:33.065Z,77.43
2022-09-11T19:41:02.967Z,77.53
2022-09-11T19:43:31.380Z,77.56
2022-09-11T19:46:11.791Z,77.58
2022-09-11T19:48:39.835Z,77.76
2022-09-11T19:51:13.341Z,77.66
2022-09-11T19:53:41.963Z,77.81
2022-09-11T19:56:11.537Z,77.76
2022-09-11T19:58:39.356Z,77.95
2022-09-11T20:01:11.664Z,77.88
2022-09-11T20:03:40.172Z,78.11
2022-09-11T20:06:08.591Z,78.31
2022-09-11T20:08:37.172Z,78.31
2022-09-11T20:11:07.354Z,78.20
2022-09-11T20:13:35.421Z,78.27
2022-09-11T20:16:07.311Z,78.38
2022-09-11T20:18:34.991Z,78.45
2022-09-11T20:21:06.604Z,78.55
2022-09-11T20:23:35.243Z,78.55
2022-09-11T20:26:19.116Z,78.75
2022-09-11T20:28:48.525Z,78.69
2022-09-11T20:31:20.994Z,79.02
2022-09-11T20:33:49.686Z,78.90
2022-09-11T20:36:18.383Z,78.94
2022-09-11T20:38:50.392Z,78.97
2022-09-11T20:41:17.392Z,79.19
2022-09-11T20:43:44.712Z,79.33
2022-09-11T20:46:11.741Z,79.40
2022-09-11T20:48:38.683Z,79.23
2022-09-11T20:51:11.394Z,79.45
2022-09-11T20:53:41.894Z,79.10
2022-09-11T20:56:11.249Z,79.50
2022-09-11T20:58:39.012Z,79.66
2022-09-11T21:01:07.448Z,79.66
2022-09-11T21:03:34.748Z,79.65
2022-09-11T21:06:08.919Z,79.76
2022-09-11T21:08:36.224Z,79.80
2022-09-11T21:11:05.276Z,79.92
2022-09-11T21:13:36.928Z,79.79
2022-09-11T21:16:09.369Z,79.83
2022-09-11T21:18:36.439Z,79.70
2022-09-11T21:21:03.908Z,79.98
2022-09-11T21:23:32.379Z,80.11
2022-09-11T21:25:59.548Z,80.79
2022-09-11T21:28:26.541Z,80.84
2022-09-11T21:30:53.521Z,80.75
2022-09-11T21:33:20.376Z,80.71
2022-09-11T21:35:55.053Z,80.59
2022-09-11T21:38:28.811Z,80.55
2022-09-11T21:40:57.806Z,80.47
2022-09-11T21:43:25.058Z,80.59
2022-09-11T21:45:52.105Z,80.70
2022-09-11T21:48:19.059Z,80.54
2022-09-11T21:50:46.100Z,80.57
2022-09-11T21:53:13.096Z,80.80
2022-09-11T21:55:45.526Z,80.65
2022-09-11T21:58:19.534Z,80.51
2022-09-11T22:00:51.358Z,80.92
2022-09-11T22:03:19.419Z,80.85
2022-09-11T22:05:49.332Z,80.73
2022-09-11T22:08:18.737Z,80.92
2022-09-11T22:10:48.450Z,80.80
2022-09-11T22:13:17.078Z,80.76
2022-09-11T22:15:46.025Z,80.73
2022-09-11T22:18:13.529Z,80.68
2022-09-11T22:20:41.814Z,80.81
2022-09-11T22:23:14.962Z,80.65
2022-09-11T22:25:42.153Z,80.87
2022-09-11T22:28:09.564Z,80.74
2022-09-11T22:30:40.563Z,81.03
2022-09-11T22:33:07.605Z,81.05
2022-09-11T22:35:35.122Z,81.25
2022-09-11T22:38:02.219Z,81.29
2022-09-11T22:40:29.200Z,81.20
2022-09-11T22:42:56.150Z,81.11
2022-09-11T22:45:22.895Z,80.90
2022-09-11T22:47:50.042Z,81.08
2022-09-11T22:50:17.403Z,80.96
2022-09-11T22:52:44.602Z,81.08
2022-09-11T22:55:11.657Z,80.91
2022-09-11T22:57:39.161Z,81.17
2022-09-11T23:00:08.481Z,81.14
2022-09-11T23:02:36.338Z,81.17
2022-09-11T23:05:23.874Z,81.27
2022-09-11T23:07:51.995Z,81.27
2022-09-11T23:10:23.774Z,81.05
2022-09-11T23:12:53.961Z,81.16
2022-09-11T23:15:21.829Z,80.99
2022-09-11T23:17:48.683Z,81.26
2022-09-11T23:20:16.345Z,81.42
2022-09-11T23:22:43.275Z,81.53
2022-09-11T23:25:11.320Z,81.47
2022-09-11T23:27:38.252Z,81.64
2022-09-11T23:30:05.760Z,81.63
2022-09-11T23:32:32.862Z,81.65
2022-09-11T23:34:59.808Z,81.29
2022-09-11T23:37:26.905Z,81.57
2022-09-11T23:39:53.911Z,81.35
2022-09-11T23:42:21.105Z,82.02
2022-09-11T23:44:47.854Z,81.76
2022-09-11T23:47:14.954Z,81.57
2022-09-11T23:49:43.429Z,81.77
2022-09-11T23:52:10.321Z,82.00
2022-09-11T23:54:37.584Z,81.74
2022-09-11T23:57:05.807Z,81.60
2022-09-11T23:59:36.003Z,81.69
